aviador You're here:

KEKX Decoded Metar

ELIZABETH in KY, USA
Report Time2017-06-27 05:15:00
UTC Time2017-06-27 05:25:27
Flight Rules vfr VFR
WindCalm
Visibility9999 m
Phenomena:N/A
Clouds:Broken 085 Hf
Expected CloudBase > 2,800 ft AGL from Temp-Dew spread
Ceiling8,500 ft
Temp17°C (ISA +3)
Dew Point10°C (64% RH)
QNH1020 hPa
Density Alt1,099 ft
Elevation755 ft
Report Wrong Elevation
Raw Report
METAR KEKX 270515Z AUTO 00000KT 10SM BKN085 17/10 A3012 RMK AO2 T01670096=

Extra information for KEKX:More info

Airport Information Weather charts Add Link Nearby Venues Social comments

AIRNAV info for KEKX